createdAt,value
2023-05-04T00:01:51.569Z,10.26
2023-05-04T00:06:54.537Z,10.32
2023-05-04T00:11:57.704Z,9.93
2023-05-04T00:17:03.122Z,10.19
2023-05-04T00:22:06.346Z,10.17
2023-05-04T00:27:10.292Z,9.99
2023-05-04T00:32:14.431Z,10.18
2023-05-04T00:37:17.680Z,9.78
2023-05-04T00:42:20.496Z,9.75
2023-05-04T00:47:25.224Z,9.94
2023-05-04T00:52:28.851Z,9.90
2023-05-04T00:57:31.892Z,9.77
2023-05-04T01:02:36.431Z,9.77
2023-05-04T01:07:42.957Z,9.63
2023-05-04T01:12:49.178Z,9.88
2023-05-04T01:17:53.350Z,9.64
2023-05-04T01:22:57.516Z,9.76
2023-05-04T01:28:05.189Z,9.51
2023-05-04T01:33:08.236Z,9.65
2023-05-04T01:38:14.784Z,9.65
2023-05-04T01:43:17.586Z,9.63
2023-05-04T01:48:20.437Z,9.50
2023-05-04T01:53:24.725Z,9.53
2023-05-04T01:58:27.597Z,9.60
2023-05-04T02:03:31.445Z,9.38
2023-05-04T02:08:35.757Z,9.39
2023-05-04T02:13:38.558Z,9.46
2023-05-04T02:18:41.804Z,9.40
2023-05-04T02:23:46.132Z,9.53
2023-05-04T02:28:49.018Z,9.30
2023-05-04T02:33:52.184Z,9.43
2023-05-04T02:38:56.407Z,9.16
2023-05-04T02:43:59.211Z,9.35
2023-05-04T02:49:02.265Z,9.28
2023-05-04T02:54:06.667Z,9.33
2023-05-04T02:59:09.638Z,9.49
2023-05-04T03:04:12.456Z,9.61
2023-05-04T03:09:16.829Z,9.39
2023-05-04T03:14:19.658Z,9.39
2023-05-04T03:19:22.564Z,9.53
2023-05-04T03:24:27.015Z,9.43
2023-05-04T03:29:30.007Z,9.33
2023-05-04T03:34:33.920Z,9.53
2023-05-04T03:39:41.835Z,9.52
2023-05-04T03:44:45.296Z,9.55
2023-05-04T03:49:48.681Z,9.41
2023-05-04T03:54:52.982Z,9.38
2023-05-04T03:59:57.826Z,9.46
2023-05-04T04:05:01.859Z,9.72
2023-05-04T04:10:07.801Z,9.79
2023-05-04T04:15:11.787Z,10.01
2023-05-04T04:20:14.663Z,9.98
2023-05-04T04:25:19.051Z,9.70
2023-05-04T04:30:21.996Z,9.65
2023-05-04T04:35:24.861Z,9.77
2023-05-04T04:40:29.092Z,9.84
2023-05-04T04:45:33.695Z,9.84
2023-05-04T04:50:39.574Z,9.82
2023-05-04T04:55:43.876Z,9.85
2023-05-04T05:00:47.536Z,9.97
2023-05-04T05:05:50.596Z,10.16
2023-05-04T05:10:54.826Z,10.09
2023-05-04T05:15:57.759Z,10.35
2023-05-04T05:21:00.816Z,10.32
2023-05-04T05:26:05.079Z,10.33
2023-05-04T05:31:08.117Z,10.48
2023-05-04T05:36:11.123Z,10.36
2023-05-04T05:41:16.106Z,10.73
2023-05-04T05:46:19.375Z,10.61
2023-05-04T05:51:22.231Z,10.55
2023-05-04T05:56:26.478Z,10.51
2023-05-04T06:01:29.375Z,10.77
2023-05-04T06:06:32.227Z,10.83
2023-05-04T06:11:36.447Z,10.70
2023-05-04T06:16:39.610Z,10.78
2023-05-04T06:21:42.528Z,10.81
2023-05-04T06:26:46.757Z,11.18
2023-05-04T06:31:49.658Z,10.94
2023-05-04T06:36:52.514Z,11.03
2023-05-04T06:41:57.119Z,11.36
2023-05-04T06:47:01.955Z,11.90
2023-05-04T06:52:05.305Z,12.62
2023-05-04T06:57:09.401Z,14.40
2023-05-04T07:02:12.183Z,17.22
2023-05-04T07:07:15.157Z,15.50
2023-05-04T07:12:19.644Z,14.73
2023-05-04T07:17:25.314Z,14.07
2023-05-04T07:22:28.519Z,13.79
2023-05-04T07:27:34.629Z,14.55
2023-05-04T07:32:37.419Z,14.63
2023-05-04T07:37:40.321Z,14.85
2023-05-04T07:42:44.524Z,14.56
2023-05-04T07:47:47.435Z,14.47
2023-05-04T07:52:50.697Z,14.33
2023-05-04T07:57:54.879Z,14.11
2023-05-04T08:02:58.241Z,14.47
2023-05-04T08:08:01.084Z,14.14
2023-05-04T08:13:05.370Z,14.48
2023-05-04T08:18:08.367Z,14.83
2023-05-04T08:23:11.385Z,14.38
2023-05-04T08:28:15.597Z,14.55
2023-05-04T08:33:18.476Z,15.04
2023-05-04T08:38:21.390Z,15.71
2023-05-04T08:43:25.722Z,15.43
2023-05-04T08:48:28.657Z,15.27
2023-05-04T08:53:32.529Z,15.54
2023-05-04T08:58:38.066Z,15.09
2023-05-04T09:03:41.397Z,14.71
2023-05-04T09:08:44.556Z,14.83
2023-05-04T09:13:48.813Z,14.89
2023-05-04T09:18:51.746Z,15.01
2023-05-04T09:23:54.608Z,15.40
2023-05-04T09:29:10.879Z,15.61
2023-05-04T09:34:15.102Z,15.93
2023-05-04T09:39:17.959Z,15.88
2023-05-04T09:44:23.396Z,16.32
2023-05-04T09:49:33.006Z,17.09
2023-05-04T09:54:38.791Z,16.79
2023-05-04T09:59:43.496Z,16.76
2023-05-04T10:04:46.696Z,17.16
2023-05-04T10:09:49.875Z,17.34
2023-05-04T10:14:54.248Z,17.92
2023-05-04T10:20:09.506Z,17.40
2023-05-04T10:25:31.953Z,17.40
2023-05-04T10:30:36.206Z,18.16
2023-05-04T10:35:39.249Z,18.38
2023-05-04T10:40:42.477Z,17.99
2023-05-04T10:45:46.772Z,18.15
2023-05-04T10:50:50.894Z,18.05
2023-05-04T10:55:53.805Z,18.07
2023-05-04T11:00:58.051Z,18.11
2023-05-04T11:06:00.945Z,18.06
2023-05-04T11:11:06.692Z,18.23
2023-05-04T11:16:12.560Z,18.38
2023-05-04T11:21:24.912Z,18.13
2023-05-04T11:26:28.422Z,18.53
2023-05-04T11:31:32.716Z,18.62
2023-05-04T11:36:38.355Z,18.78
2023-05-04T11:41:41.338Z,18.71
2023-05-04T11:46:45.666Z,19.23
2023-05-04T11:51:48.847Z,19.03
2023-05-04T11:56:51.668Z,18.81
2023-05-04T12:01:57.046Z,19.00
2023-05-04T12:07:01.775Z,19.47
2023-05-04T12:12:05.122Z,19.24
2023-05-04T12:17:09.258Z,19.56
2023-05-04T12:22:12.790Z,19.69
2023-05-04T12:27:16.621Z,19.56
2023-05-04T12:32:21.414Z,19.44
2023-05-04T12:37:25.134Z,19.68
2023-05-04T12:42:28.051Z,19.88
2023-05-04T12:47:32.182Z,19.71
2023-05-04T12:52:35.058Z,19.99
2023-05-04T12:57:37.923Z,19.99
2023-05-04T13:02:42.328Z,19.91
2023-05-04T13:07:45.403Z,19.73
2023-05-04T13:12:49.036Z,19.83
2023-05-04T13:17:53.855Z,19.84
2023-05-04T13:22:58.299Z,20.12
2023-05-04T13:28:01.546Z,20.29
2023-05-04T13:33:13.433Z,20.16
2023-05-04T13:38:24.478Z,20.11
2023-05-04T13:43:27.340Z,20.13
2023-05-04T13:48:32.902Z,19.79
2023-05-04T13:53:35.689Z,20.28
2023-05-04T13:58:38.728Z,20.29
2023-05-04T14:03:43.054Z,20.35
2023-05-04T14:08:45.936Z,20.79
2023-05-04T14:13:48.759Z,20.66
2023-05-04T14:18:52.880Z,20.75
2023-05-04T14:23:55.891Z,20.98
2023-05-04T14:28:58.694Z,20.95
2023-05-04T14:34:03.270Z,20.75
2023-05-04T14:39:06.173Z,20.85
2023-05-04T14:44:08.995Z,20.79
2023-05-04T14:49:21.489Z,20.64
2023-05-04T14:54:31.909Z,20.49
2023-05-04T14:59:34.701Z,20.64
2023-05-04T15:04:38.938Z,20.74
2023-05-04T15:09:41.745Z,21.07
2023-05-04T15:14:44.797Z,21.11
2023-05-04T15:19:49.040Z,21.24
2023-05-04T15:24:53.650Z,21.01
2023-05-04T15:29:56.438Z,21.00
2023-05-04T15:35:05.133Z,20.77
2023-05-04T15:40:10.500Z,20.74
2023-05-04T15:45:13.691Z,20.89
2023-05-04T15:50:17.990Z,21.06
2023-05-04T15:55:25.933Z,20.95
2023-05-04T16:00:29.691Z,20.73
2023-05-04T16:05:33.933Z,20.53
2023-05-04T16:10:37.288Z,20.47
2023-05-04T16:15:40.526Z,20.74
2023-05-04T16:20:44.845Z,21.14
2023-05-04T16:25:49.470Z,20.87
2023-05-04T16:30:52.693Z,20.75
2023-05-04T16:35:57.440Z,20.53
2023-05-04T16:41:00.273Z,20.27
2023-05-04T16:46:04.382Z,20.10
2023-05-04T16:51:09.058Z,20.43
2023-05-04T16:56:18.129Z,20.87
2023-05-04T17:01:21.059Z,20.85
2023-05-04T17:06:25.874Z,21.03
2023-05-04T17:11:28.766Z,21.02
2023-05-04T17:16:31.632Z,20.89
2023-05-04T17:21:37.555Z,20.58
2023-05-04T17:26:40.521Z,20.30
2023-05-04T17:31:43.711Z,20.34
2023-05-04T17:36:48.222Z,20.17
2023-05-04T17:41:51.467Z,20.07
2023-05-04T17:46:54.413Z,20.33
2023-05-04T17:51:59.649Z,20.00
2023-05-04T17:57:02.726Z,20.02
2023-05-04T18:02:06.046Z,20.15
2023-05-04T18:07:10.727Z,19.83
2023-05-04T18:12:13.816Z,19.84
2023-05-04T18:17:16.790Z,19.69
2023-05-04T18:22:21.031Z,19.76
2023-05-04T18:27:23.973Z,19.63
2023-05-04T18:32:27.408Z,19.54
2023-05-04T18:37:32.215Z,19.35
2023-05-04T18:42:35.401Z,18.95
2023-05-04T18:47:38.680Z,18.79
2023-05-04T18:52:43.169Z,18.48
2023-05-04T18:57:46.486Z,18.36
2023-05-04T19:02:49.295Z,18.22
2023-05-04T19:07:53.645Z,18.28
2023-05-04T19:12:56.594Z,18.08
2023-05-04T19:17:59.724Z,17.85
2023-05-04T19:23:04.107Z,17.85
2023-05-04T19:28:08.973Z,17.86
2023-05-04T19:33:11.883Z,17.87
2023-05-04T19:38:16.099Z,17.83
2023-05-04T19:43:19.066Z,17.78
2023-05-04T19:48:21.994Z,17.80
2023-05-04T19:53:26.168Z,17.64
2023-05-04T19:58:30.900Z,17.60
2023-05-04T20:03:33.800Z,17.53
2023-05-04T20:08:37.891Z,17.63
2023-05-04T20:13:40.852Z,17.65
2023-05-04T20:18:43.676Z,17.68
2023-05-04T20:23:47.778Z,17.58
2023-05-04T20:28:50.555Z,17.40
2023-05-04T20:33:53.390Z,17.50
2023-05-04T20:38:57.749Z,17.51
2023-05-04T20:44:00.797Z,17.36
2023-05-04T20:49:03.613Z,17.37
2023-05-04T20:54:07.779Z,17.12
2023-05-04T20:59:10.607Z,17.11
2023-05-04T21:04:14.800Z,17.02
2023-05-04T21:09:18.944Z,16.79
2023-05-04T21:14:21.750Z,16.79
2023-05-04T21:19:24.644Z,16.65
2023-05-04T21:24:29.990Z,16.60
2023-05-04T21:29:32.813Z,16.61
2023-05-04T21:34:35.617Z,16.47
2023-05-04T21:39:39.803Z,16.60
2023-05-04T21:44:42.840Z,16.37
2023-05-04T21:49:45.620Z,16.63
2023-05-04T21:54:50.147Z,16.54
2023-05-04T21:59:52.946Z,16.56
2023-05-04T22:04:55.700Z,16.66
2023-05-04T22:09:59.782Z,16.62
2023-05-04T22:15:02.618Z,16.62
2023-05-04T22:20:06.396Z,16.76
2023-05-04T22:25:11.055Z,16.72
2023-05-04T22:30:14.717Z,16.60
2023-05-04T22:35:18.049Z,16.64
2023-05-04T22:40:22.528Z,16.50
2023-05-04T22:45:25.412Z,16.25
2023-05-04T22:50:28.770Z,16.10
2023-05-04T22:55:33.002Z,16.18
2023-05-04T23:00:36.582Z,16.07
2023-05-04T23:05:39.431Z,16.08
2023-05-04T23:10:46.720Z,16.24
2023-05-04T23:15:49.565Z,16.31
2023-05-04T23:20:52.545Z,16.26
2023-05-04T23:25:57.066Z,16.18
2023-05-04T23:30:59.854Z,15.78
2023-05-04T23:36:02.699Z,15.69
2023-05-04T23:41:06.967Z,15.82
2023-05-04T23:46:09.857Z,15.87
2023-05-04T23:51:12.831Z,15.93
2023-05-04T23:56:17.510Z,15.90
